sensor_id;sensor_type;location;lat;lon;timestamp;pressure;altitude;pressure_sealevel;temperature;humidity
3250;BME280;1637;42.020;23.992;2023-05-25T00:02:22;92871.53;;;12.09;99.06
3250;BME280;1637;42.020;23.992;2023-05-25T00:04:50;92866.13;;;12.13;97.66
3250;BME280;1637;42.020;23.992;2023-05-25T00:07:17;92880.66;;;12.15;97.61
3250;BME280;1637;42.020;23.992;2023-05-25T00:09:44;92871.66;;;12.02;98.40
3250;BME280;1637;42.020;23.992;2023-05-25T00:12:11;92875.69;;;12.37;95.53
3250;BME280;1637;42.020;23.992;2023-05-25T00:14:38;92873.91;;;12.50;94.67
3250;BME280;1637;42.020;23.992;2023-05-25T00:17:06;92868.56;;;12.50;94.79
3250;BME280;1637;42.020;23.992;2023-05-25T00:19:34;92864.59;;;12.35;95.41
3250;BME280;1637;42.020;23.992;2023-05-25T00:22:01;92868.78;;;12.13;97.45
3250;BME280;1637;42.020;23.992;2023-05-25T00:24:28;92856.38;;;11.99;99.22
3250;BME280;1637;42.020;23.992;2023-05-25T00:26:56;92859.19;;;11.88;100.00
3250;BME280;1637;42.020;23.992;2023-05-25T00:29:22;92858.78;;;11.90;100.00
3250;BME280;1637;42.020;23.992;2023-05-25T00:31:50;92870.91;;;12.01;100.00
3250;BME280;1637;42.020;23.992;2023-05-25T00:34:18;92779.50;;;11.35;100.00
3250;BME280;1637;42.020;23.992;2023-05-25T00:36:46;92869.72;;;11.79;100.00
3250;BME280;1637;42.020;23.992;2023-05-25T00:39:13;92870.06;;;11.81;100.00
3250;BME280;1637;42.020;23.992;2023-05-25T00:41:42;92866.69;;;11.74;100.00
3250;BME280;1637;42.020;23.992;2023-05-25T00:44:10;92865.09;;;11.80;100.00
3250;BME280;1637;42.020;23.992;2023-05-25T00:46:44;92862.56;;;11.65;100.00
3250;BME280;1637;42.020;23.992;2023-05-25T00:49:14;92867.78;;;11.80;100.00
3250;BME280;1637;42.020;23.992;2023-05-25T00:51:43;92860.41;;;11.57;100.00
3250;BME280;1637;42.020;23.992;2023-05-25T00:54:11;92865.66;;;11.37;100.00
3250;BME280;1637;42.020;23.992;2023-05-25T00:56:41;92867.53;;;11.10;100.00
3250;BME280;1637;42.020;23.992;2023-05-25T00:59:11;92865.22;;;11.12;100.00
3250;BME280;1637;42.020;23.992;2023-05-25T01:01:41;92875.31;;;11.00;100.00
3250;BME280;1637;42.020;23.992;2023-05-25T01:04:12;92868.34;;;11.37;100.00
3250;BME280;1637;42.020;23.992;2023-05-25T01:06:46;92866.53;;;11.57;100.00
3250;BME280;1637;42.020;23.992;2023-05-25T01:09:16;92866.09;;;11.62;100.00
3250;BME280;1637;42.020;23.992;2023-05-25T01:11:48;92864.72;;;11.20;100.00
3250;BME280;1637;42.020;23.992;2023-05-25T01:14:18;92874.34;;;10.84;100.00
3250;BME280;1637;42.020;23.992;2023-05-25T01:16:46;92869.75;;;11.18;100.00
3250;BME280;1637;42.020;23.992;2023-05-25T01:19:13;92872.53;;;11.65;100.00
3250;BME280;1637;42.020;23.992;2023-05-25T01:21:44;92871.44;;;11.35;100.00
3250;BME280;1637;42.020;23.992;2023-05-25T01:24:18;92872.00;;;11.20;100.00
3250;BME280;1637;42.020;23.992;2023-05-25T01:26:53;92864.38;;;11.45;100.00
3250;BME280;1637;42.020;23.992;2023-05-25T01:29:22;92870.09;;;11.20;100.00
3250;BME280;1637;42.020;23.992;2023-05-25T01:31:51;92865.22;;;11.12;100.00
3250;BME280;1637;42.020;23.992;2023-05-25T01:34:19;92872.13;;;11.09;100.00
3250;BME280;1637;42.020;23.992;2023-05-25T01:36:48;92873.97;;;10.82;100.00
3250;BME280;1637;42.020;23.992;2023-05-25T01:39:15;92865.38;;;10.97;100.00
3250;BME280;1637;42.020;23.992;2023-05-25T01:41:42;92868.50;;;10.92;100.00
3250;BME280;1637;42.020;23.992;2023-05-25T01:44:09;92867.34;;;10.59;100.00
3250;BME280;1637;42.020;23.992;2023-05-25T01:46:38;92870.84;;;10.87;100.00
3250;BME280;1637;42.020;23.992;2023-05-25T01:49:15;92868.75;;;10.71;100.00
3250;BME280;1637;42.020;23.992;2023-05-25T01:51:52;92874.66;;;10.89;100.00
3250;BME280;1637;42.020;23.992;2023-05-25T01:54:26;92872.19;;;10.72;100.00
3250;BME280;1637;42.020;23.992;2023-05-25T01:56:57;92867.06;;;10.47;100.00
3250;BME280;1637;42.020;23.992;2023-05-25T01:59:27;92870.19;;;10.42;100.00
3250;BME280;1637;42.020;23.992;2023-05-25T02:01:55;92865.91;;;10.85;100.00
3250;BME280;1637;42.020;23.992;2023-05-25T02:04:24;92871.34;;;10.41;100.00
3250;BME280;1637;42.020;23.992;2023-05-25T02:06:53;92879.84;;;10.70;100.00
3250;BME280;1637;42.020;23.992;2023-05-25T02:09:20;92883.50;;;10.49;100.00
3250;BME280;1637;42.020;23.992;2023-05-25T02:11:47;92885.03;;;10.50;100.00
3250;BME280;1637;42.020;23.992;2023-05-25T02:14:14;92877.28;;;10.59;100.00
3250;BME280;1637;42.020;23.992;2023-05-25T02:16:41;92880.00;;;10.93;100.00
3250;BME280;1637;42.020;23.992;2023-05-25T02:19:11;92885.84;;;10.43;100.00
3250;BME280;1637;42.020;23.992;2023-05-25T02:21:39;92886.16;;;10.52;100.00
3250;BME280;1637;42.020;23.992;2023-05-25T02:24:08;92887.28;;;10.55;100.00
3250;BME280;1637;42.020;23.992;2023-05-25T02:26:35;92889.72;;;10.39;100.00
3250;BME280;1637;42.020;23.992;2023-05-25T02:29:02;92877.69;;;10.13;100.00
3250;BME280;1637;42.020;23.992;2023-05-25T02:31:28;92889.56;;;10.08;100.00
3250;BME280;1637;42.020;23.992;2023-05-25T02:33:56;92874.56;;;9.70;100.00
3250;BME280;1637;42.020;23.992;2023-05-25T02:36:23;92885.88;;;9.91;100.00
3250;BME280;1637;42.020;23.992;2023-05-25T02:38:50;92838.69;;;9.63;100.00
3250;BME280;1637;42.020;23.992;2023-05-25T02:41:19;92889.06;;;10.24;100.00
3250;BME280;1637;42.020;23.992;2023-05-25T02:43:46;92883.84;;;10.06;100.00
3250;BME280;1637;42.020;23.992;2023-05-25T02:46:13;92886.44;;;10.20;100.00
3250;BME280;1637;42.020;23.992;2023-05-25T02:48:40;92892.91;;;10.23;100.00
3250;BME280;1637;42.020;23.992;2023-05-25T02:51:08;92886.06;;;10.18;100.00
3250;BME280;1637;42.020;23.992;2023-05-25T02:53:35;92887.59;;;10.16;100.00
3250;BME280;1637;42.020;23.992;2023-05-25T02:56:02;92887.97;;;10.18;100.00
3250;BME280;1637;42.020;23.992;2023-05-25T02:58:30;92895.41;;;9.96;100.00
3250;BME280;1637;42.020;23.992;2023-05-25T03:00:57;92898.41;;;10.02;100.00
3250;BME280;1637;42.020;23.992;2023-05-25T03:03:25;92899.84;;;10.17;100.00
3250;BME280;1637;42.020;23.992;2023-05-25T03:05:52;92902.69;;;9.92;100.00
3250;BME280;1637;42.020;23.992;2023-05-25T03:08:19;92909.13;;;9.98;100.00
3250;BME280;1637;42.020;23.992;2023-05-25T03:10:46;92909.09;;;10.05;100.00
3250;BME280;1637;42.020;23.992;2023-05-25T03:13:13;92870.72;;;9.74;100.00
3250;BME280;1637;42.020;23.992;2023-05-25T03:15:41;92913.75;;;9.94;100.00
3250;BME280;1637;42.020;23.992;2023-05-25T03:18:08;92916.31;;;10.08;100.00
3250;BME280;1637;42.020;23.992;2023-05-25T03:20:35;92918.06;;;10.36;100.00
3250;BME280;1637;42.020;23.992;2023-05-25T03:23:01;92915.88;;;10.20;100.00
3250;BME280;1637;42.020;23.992;2023-05-25T03:25:28;92922.34;;;10.23;100.00
3250;BME280;1637;42.020;23.992;2023-05-25T03:27:55;92922.09;;;10.55;100.00
3250;BME280;1637;42.020;23.992;2023-05-25T03:30:22;92923.91;;;10.65;100.00
3250;BME280;1637;42.020;23.992;2023-05-25T03:32:50;92917.81;;;10.61;100.00
3250;BME280;1637;42.020;23.992;2023-05-25T03:35:17;92923.72;;;10.42;100.00
3250;BME280;1637;42.020;23.992;2023-05-25T03:37:44;92920.06;;;10.21;100.00
3250;BME280;1637;42.020;23.992;2023-05-25T03:40:11;92928.38;;;10.38;100.00
3250;BME280;1637;42.020;23.992;2023-05-25T03:42:38;92928.38;;;10.79;100.00
3250;BME280;1637;42.020;23.992;2023-05-25T03:45:06;92921.53;;;10.74;100.00
3250;BME280;1637;42.020;23.992;2023-05-25T03:47:33;92932.94;;;11.16;100.00
3250;BME280;1637;42.020;23.992;2023-05-25T03:50:02;92934.72;;;11.60;100.00
3250;BME280;1637;42.020;23.992;2023-05-25T03:52:28;92936.97;;;12.19;100.00
3250;BME280;1637;42.020;23.992;2023-05-25T03:54:55;92937.53;;;12.57;95.99
3250;BME280;1637;42.020;23.992;2023-05-25T03:57:22;92942.88;;;13.03;93.60
3250;BME280;1637;42.020;23.992;2023-05-25T03:59:49;92947.19;;;13.60;88.55
3250;BME280;1637;42.020;23.992;2023-05-25T04:02:16;92941.09;;;13.56;87.57
3250;BME280;1637;42.020;23.992;2023-05-25T04:04:43;92941.91;;;14.09;84.58
3250;BME280;1637;42.020;23.992;2023-05-25T04:07:11;92938.72;;;14.14;84.54
3250;BME280;1637;42.020;23.992;2023-05-25T04:09:38;92943.78;;;14.12;85.23
3250;BME280;1637;42.020;23.992;2023-05-25T04:12:05;92943.06;;;14.60;82.26
3250;BME280;1637;42.020;23.992;2023-05-25T04:14:32;92927.25;;;14.46;82.82
3250;BME280;1637;42.020;23.992;2023-05-25T04:16:58;92946.22;;;15.33;80.31
3250;BME280;1637;42.020;23.992;2023-05-25T04:19:25;92945.19;;;15.14;79.99
3250;BME280;1637;42.020;23.992;2023-05-25T04:21:52;92945.84;;;15.47;78.19
3250;BME280;1637;42.020;23.992;2023-05-25T04:24:21;92953.09;;;15.92;74.67
3250;BME280;1637;42.020;23.992;2023-05-25T04:26:47;92954.41;;;16.25;72.87
3250;BME280;1637;42.020;23.992;2023-05-25T04:29:15;92963.56;;;16.91;70.70
3250;BME280;1637;42.020;23.992;2023-05-25T04:31:42;92958.75;;;16.35;71.93
3250;BME280;1637;42.020;23.992;2023-05-25T04:34:10;92963.28;;;16.13;73.70
3250;BME280;1637;42.020;23.992;2023-05-25T04:36:38;92944.94;;;15.66;77.27
3250;BME280;1637;42.020;23.992;2023-05-25T04:39:07;92922.81;;;15.42;77.63
3250;BME280;1637;42.020;23.992;2023-05-25T04:41:35;92959.75;;;15.45;79.34
3250;BME280;1637;42.020;23.992;2023-05-25T04:44:03;92938.81;;;14.92;82.36
3250;BME280;1637;42.020;23.992;2023-05-25T04:46:30;92957.97;;;15.55;78.78
3250;BME280;1637;42.020;23.992;2023-05-25T04:49:01;92946.41;;;15.26;80.13
3250;BME280;1637;42.020;23.992;2023-05-25T04:51:29;92942.41;;;15.01;83.05
3250;BME280;1637;42.020;23.992;2023-05-25T04:53:56;92953.38;;;15.68;80.78
3250;BME280;1637;42.020;23.992;2023-05-25T04:56:23;92950.44;;;15.63;80.65
3250;BME280;1637;42.020;23.992;2023-05-25T04:58:52;92960.97;;;15.86;80.64
3250;BME280;1637;42.020;23.992;2023-05-25T05:01:19;92961.78;;;16.50;78.82
3250;BME280;1637;42.020;23.992;2023-05-25T05:03:47;92953.66;;;16.75;77.33
3250;BME280;1637;42.020;23.992;2023-05-25T05:06:14;92954.63;;;16.31;76.29
3250;BME280;1637;42.020;23.992;2023-05-25T05:08:40;92959.38;;;16.52;75.93
3250;BME280;1637;42.020;23.992;2023-05-25T05:11:07;92959.41;;;16.65;76.16
3250;BME280;1637;42.020;23.992;2023-05-25T05:13:34;92961.19;;;16.93;73.09
3250;BME280;1637;42.020;23.992;2023-05-25T05:16:03;92953.66;;;17.23;72.24
3250;BME280;1637;42.020;23.992;2023-05-25T05:18:30;92961.47;;;17.42;73.46
3250;BME280;1637;42.020;23.992;2023-05-25T05:20:57;92965.41;;;18.07;72.32
3250;BME280;1637;42.020;23.992;2023-05-25T05:23:24;92958.81;;;17.64;73.54
3250;BME280;1637;42.020;23.992;2023-05-25T05:25:51;92945.19;;;17.77;71.29
3250;BME280;1637;42.020;23.992;2023-05-25T05:28:17;92963.09;;;18.27;69.48
3250;BME280;1637;42.020;23.992;2023-05-25T05:30:44;92965.66;;;18.31;69.61
3250;BME280;1637;42.020;23.992;2023-05-25T05:33:13;92962.28;;;18.58;68.41
3250;BME280;1637;42.020;23.992;2023-05-25T05:35:40;92958.84;;;17.73;71.55
3250;BME280;1637;42.020;23.992;2023-05-25T05:38:06;92952.50;;;17.67;71.46
3250;BME280;1637;42.020;23.992;2023-05-25T05:40:33;92952.22;;;17.52;73.58
3250;BME280;1637;42.020;23.992;2023-05-25T05:43:00;92959.19;;;17.06;74.66
3250;BME280;1637;42.020;23.992;2023-05-25T05:45:27;92957.53;;;16.87;75.67
3250;BME280;1637;42.020;23.992;2023-05-25T05:47:54;92950.16;;;17.00;75.04
3250;BME280;1637;42.020;23.992;2023-05-25T05:50:22;92954.00;;;17.12;75.54
3250;BME280;1637;42.020;23.992;2023-05-25T05:52:49;92949.13;;;17.20;76.04
3250;BME280;1637;42.020;23.992;2023-05-25T05:55:17;92955.75;;;17.06;76.34
3250;BME280;1637;42.020;23.992;2023-05-25T05:57:45;92953.34;;;17.08;75.35
3250;BME280;1637;42.020;23.992;2023-05-25T06:00:13;92959.47;;;17.56;73.85
3250;BME280;1637;42.020;23.992;2023-05-25T06:02:40;92955.38;;;17.95;72.75
3250;BME280;1637;42.020;23.992;2023-05-25T06:05:07;92961.00;;;18.00;72.78
3250;BME280;1637;42.020;23.992;2023-05-25T06:07:36;92956.53;;;17.84;73.52
3250;BME280;1637;42.020;23.992;2023-05-25T06:10:03;92961.00;;;17.78;73.28
3250;BME280;1637;42.020;23.992;2023-05-25T06:12:30;92958.78;;;18.08;72.14
3250;BME280;1637;42.020;23.992;2023-05-25T06:14:57;92956.41;;;18.19;71.88
3250;BME280;1637;42.020;23.992;2023-05-25T06:17:24;92967.91;;;19.40;67.94
3250;BME280;1637;42.020;23.992;2023-05-25T06:19:50;92967.59;;;20.11;64.21
3250;BME280;1637;42.020;23.992;2023-05-25T06:22:17;92963.31;;;20.28;62.49
3250;BME280;1637;42.020;23.992;2023-05-25T06:24:45;92950.56;;;20.43;62.05
3250;BME280;1637;42.020;23.992;2023-05-25T06:27:12;92962.75;;;21.23;59.87
3250;BME280;1637;42.020;23.992;2023-05-25T06:29:39;92989.34;;;20.71;60.61
3250;BME280;1637;42.020;23.992;2023-05-25T06:32:06;92953.88;;;20.56;62.94
3250;BME280;1637;42.020;23.992;2023-05-25T06:34:35;92953.91;;;21.04;60.77
3250;BME280;1637;42.020;23.992;2023-05-25T06:37:01;92961.75;;;21.11;60.00
3250;BME280;1637;42.020;23.992;2023-05-25T06:39:28;92957.38;;;21.38;58.46
3250;BME280;1637;42.020;23.992;2023-05-25T06:41:56;92962.16;;;21.81;57.76
3250;BME280;1637;42.020;23.992;2023-05-25T06:44:23;92957.06;;;21.74;57.92
3250;BME280;1637;42.020;23.992;2023-05-25T06:46:50;92958.50;;;21.46;58.82
3250;BME280;1637;42.020;23.992;2023-05-25T06:49:17;92954.69;;;21.67;57.78
3250;BME280;1637;42.020;23.992;2023-05-25T06:51:43;92954.94;;;21.40;57.65
3250;BME280;1637;42.020;23.992;2023-05-25T06:54:10;92953.41;;;21.39;59.06
3250;BME280;1637;42.020;23.992;2023-05-25T06:56:39;92945.66;;;21.22;59.36
3250;BME280;1637;42.020;23.992;2023-05-25T06:59:07;92954.25;;;21.45;59.21
3250;BME280;1637;42.020;23.992;2023-05-25T07:01:34;92941.63;;;21.71;57.90
3250;BME280;1637;42.020;23.992;2023-05-25T07:04:01;92947.31;;;21.97;57.15
3250;BME280;1637;42.020;23.992;2023-05-25T07:06:27;92950.47;;;21.66;57.84
3250;BME280;1637;42.020;23.992;2023-05-25T07:08:54;92962.16;;;22.70;55.01
3250;BME280;1637;42.020;23.992;2023-05-25T07:11:21;92953.78;;;23.63;52.85
3250;BME280;1637;42.020;23.992;2023-05-25T07:13:48;92951.22;;;23.80;52.12
3250;BME280;1637;42.020;23.992;2023-05-25T07:16:16;92939.38;;;23.28;53.58
3250;BME280;1637;42.020;23.992;2023-05-25T07:18:43;92943.63;;;23.90;54.58
3250;BME280;1637;42.020;23.992;2023-05-25T07:21:10;92944.28;;;24.31;52.59
3250;BME280;1637;42.020;23.992;2023-05-25T07:23:36;92948.66;;;24.49;50.20
3250;BME280;1637;42.020;23.992;2023-05-25T07:26:04;92952.91;;;24.87;50.19
3250;BME280;1637;42.020;23.992;2023-05-25T07:28:31;92949.97;;;25.39;50.19
3250;BME280;1637;42.020;23.992;2023-05-25T07:30:58;92936.69;;;25.20;50.34
3250;BME280;1637;42.020;23.992;2023-05-25T07:33:26;92943.41;;;24.82;50.56
3250;BME280;1637;42.020;23.992;2023-05-25T07:35:53;92948.22;;;24.93;50.62
3250;BME280;1637;42.020;23.992;2023-05-25T07:38:19;92937.56;;;24.06;52.58
3250;BME280;1637;42.020;23.992;2023-05-25T07:40:46;92939.75;;;24.28;53.33
3250;BME280;1637;42.020;23.992;2023-05-25T07:43:13;92938.81;;;24.31;52.37
3250;BME280;1637;42.020;23.992;2023-05-25T07:45:40;92936.69;;;24.20;53.77
3250;BME280;1637;42.020;23.992;2023-05-25T07:48:07;92934.25;;;23.76;53.90
3250;BME280;1637;42.020;23.992;2023-05-25T07:50:35;92944.97;;;24.57;53.64
3250;BME280;1637;42.020;23.992;2023-05-25T07:53:02;92940.50;;;25.40;52.31
3250;BME280;1637;42.020;23.992;2023-05-25T07:55:29;92932.59;;;25.58;50.41
3250;BME280;1637;42.020;23.992;2023-05-25T07:57:55;92934.28;;;24.59;53.69
3250;BME280;1637;42.020;23.992;2023-05-25T08:00:22;92931.91;;;24.73;52.55
3250;BME280;1637;42.020;23.992;2023-05-25T08:02:49;92925.47;;;24.18;53.49
3250;BME280;1637;42.020;23.992;2023-05-25T08:05:16;92936.41;;;24.44;52.96
3250;BME280;1637;42.020;23.992;2023-05-25T08:07:45;92933.13;;;24.14;53.52
3250;BME280;1637;42.020;23.992;2023-05-25T08:10:12;92929.22;;;24.21;53.42
3250;BME280;1637;42.020;23.992;2023-05-25T08:12:38;92923.91;;;23.60;54.07
3250;BME280;1637;42.020;23.992;2023-05-25T08:15:06;92919.88;;;23.81;53.37
3250;BME280;1637;42.020;23.992;2023-05-25T08:17:33;92926.75;;;23.30;55.15
3250;BME280;1637;42.020;23.992;2023-05-25T08:19:59;92907.38;;;23.75;54.45
3250;BME280;1637;42.020;23.992;2023-05-25T08:22:26;92917.91;;;24.08;53.64
3250;BME280;1637;42.020;23.992;2023-05-25T08:24:55;92895.59;;;23.63;53.81
3250;BME280;1637;42.020;23.992;2023-05-25T08:27:21;92921.06;;;24.52;52.17
3250;BME280;1637;42.020;23.992;2023-05-25T08:29:48;92914.22;;;25.11;49.79
3250;BME280;1637;42.020;23.992;2023-05-25T08:32:15;92918.06;;;25.36;48.58
3250;BME280;1637;42.020;23.992;2023-05-25T08:34:42;92921.56;;;25.42;49.19
3250;BME280;1637;42.020;23.992;2023-05-25T08:37:09;92915.91;;;24.65;49.61
3250;BME280;1637;42.020;23.992;2023-05-25T08:39:35;92895.28;;;24.76;49.66
3250;BME280;1637;42.020;23.992;2023-05-25T08:42:04;92927.00;;;26.01;46.71
3250;BME280;1637;42.020;23.992;2023-05-25T08:44:34;92919.34;;;26.55;47.96
3250;BME280;1637;42.020;23.992;2023-05-25T08:47:05;92914.09;;;26.80;44.80
3250;BME280;1637;42.020;23.992;2023-05-25T08:49:34;92922.59;;;26.48;45.68
3250;BME280;1637;42.020;23.992;2023-05-25T08:52:03;92918.31;;;26.64;44.96
3250;BME280;1637;42.020;23.992;2023-05-25T08:54:33;92910.56;;;26.12;43.63
3250;BME280;1637;42.020;23.992;2023-05-25T08:57:07;92906.66;;;25.59;44.74
3250;BME280;1637;42.020;23.992;2023-05-25T08:59:43;92912.22;;;25.17;44.69
3250;BME280;1637;42.020;23.992;2023-05-25T09:02:20;92896.41;;;24.52;46.48
3250;BME280;1637;42.020;23.992;2023-05-25T09:04:47;92901.34;;;24.22;47.16
3250;BME280;1637;42.020;23.992;2023-05-25T09:07:14;92899.38;;;24.23;48.15
3250;BME280;1637;42.020;23.992;2023-05-25T09:09:41;92900.97;;;24.35;48.51
3250;BME280;1637;42.020;23.992;2023-05-25T09:12:09;92900.81;;;24.44;48.14
3250;BME280;1637;42.020;23.992;2023-05-25T09:14:37;92902.22;;;24.65;47.45
3250;BME280;1637;42.020;23.992;2023-05-25T09:17:10;92903.53;;;24.81;46.80
3250;BME280;1637;42.020;23.992;2023-05-25T09:19:37;92898.72;;;24.33;47.24
3250;BME280;1637;42.020;23.992;2023-05-25T09:22:04;92892.56;;;24.13;47.18
3250;BME280;1637;42.020;23.992;2023-05-25T09:24:31;92893.28;;;24.71;46.58
3250;BME280;1637;42.020;23.992;2023-05-25T09:26:58;92897.13;;;25.38;46.85
3250;BME280;1637;42.020;23.992;2023-05-25T09:29:26;92901.13;;;26.30;44.74
3250;BME280;1637;42.020;23.992;2023-05-25T09:31:53;92892.81;;;26.19;44.67
3250;BME280;1637;42.020;23.992;2023-05-25T09:34:21;92895.94;;;25.50;44.24
3250;BME280;1637;42.020;23.992;2023-05-25T09:36:48;92891.63;;;25.32;44.24
3250;BME280;1637;42.020;23.992;2023-05-25T09:39:15;92871.09;;;25.11;46.30
3250;BME280;1637;42.020;23.992;2023-05-25T09:41:42;92879.91;;;24.15;47.80
3250;BME280;1637;42.020;23.992;2023-05-25T09:44:09;92874.09;;;23.76;49.08
3250;BME280;1637;42.020;23.992;2023-05-25T09:46:37;92849.69;;;23.26;48.52
3250;BME280;1637;42.020;23.992;2023-05-25T09:49:07;92842.59;;;22.94;48.52
3250;BME280;1637;42.020;23.992;2023-05-25T09:51:34;92867.50;;;23.42;48.04
3250;BME280;1637;42.020;23.992;2023-05-25T09:54:01;92870.44;;;23.59;48.25
3250;BME280;1637;42.020;23.992;2023-05-25T09:56:30;92871.41;;;23.82;47.76
3250;BME280;1637;42.020;23.992;2023-05-25T09:58:57;92877.88;;;24.79;47.43
3250;BME280;1637;42.020;23.992;2023-05-25T10:01:24;92872.28;;;25.64;42.79
3250;BME280;1637;42.020;23.992;2023-05-25T10:03:54;92884.59;;;26.24;42.41
3250;BME280;1637;42.020;23.992;2023-05-25T10:06:21;92877.34;;;25.77;39.43
3250;BME280;1637;42.020;23.992;2023-05-25T10:08:48;92863.78;;;25.62;39.84
3250;BME280;1637;42.020;23.992;2023-05-25T10:11:16;92870.34;;;25.76;37.15
3250;BME280;1637;42.020;23.992;2023-05-25T10:13:44;92865.66;;;25.22;37.89
3250;BME280;1637;42.020;23.992;2023-05-25T10:16:14;92864.44;;;25.29;36.79
3250;BME280;1637;42.020;23.992;2023-05-25T10:18:47;92846.56;;;24.91;36.66
3250;BME280;1637;42.020;23.992;2023-05-25T10:21:16;92851.72;;;24.78;38.92
3250;BME280;1637;42.020;23.992;2023-05-25T10:23:46;92861.00;;;24.86;37.62
3250;BME280;1637;42.020;23.992;2023-05-25T10:26:16;92852.13;;;25.02;38.78
3250;BME280;1637;42.020;23.992;2023-05-25T10:28:44;92862.34;;;25.02;36.76
3250;BME280;1637;42.020;23.992;2023-05-25T10:31:13;92836.34;;;24.86;37.75
3250;BME280;1637;42.020;23.992;2023-05-25T10:33:42;92853.63;;;25.03;39.53
3250;BME280;1637;42.020;23.992;2023-05-25T10:36:10;92857.03;;;25.57;38.92
3250;BME280;1637;42.020;23.992;2023-05-25T10:38:40;92856.38;;;25.90;40.17
3250;BME280;1637;42.020;23.992;2023-05-25T10:41:09;92848.41;;;26.03;41.22
3250;BME280;1637;42.020;23.992;2023-05-25T10:43:37;92841.53;;;25.43;43.55
3250;BME280;1637;42.020;23.992;2023-05-25T10:46:05;92841.63;;;24.95;44.29
3250;BME280;1637;42.020;23.992;2023-05-25T10:48:35;92840.91;;;25.76;42.35
3250;BME280;1637;42.020;23.992;2023-05-25T10:51:03;92843.16;;;26.00;43.00
3250;BME280;1637;42.020;23.992;2023-05-25T10:53:30;92852.44;;;26.36;40.92
3250;BME280;1637;42.020;23.992;2023-05-25T10:56:02;92843.00;;;25.27;46.21
3250;BME280;1637;42.020;23.992;2023-05-25T10:58:30;92846.75;;;24.82;46.35
3250;BME280;1637;42.020;23.992;2023-05-25T11:00:58;92842.34;;;24.47;47.46
3250;BME280;1637;42.020;23.992;2023-05-25T11:03:47;92838.78;;;23.78;48.98
3250;BME280;1637;42.020;23.992;2023-05-25T11:06:15;92833.66;;;23.60;49.14
3250;BME280;1637;42.020;23.992;2023-05-25T11:08:49;92838.00;;;23.72;47.92
3250;BME280;1637;42.020;23.992;2023-05-25T11:11:17;92848.16;;;23.66;48.19
3250;BME280;1637;42.020;23.992;2023-05-25T11:13:46;92845.38;;;23.40;48.16
3250;BME280;1637;42.020;23.992;2023-05-25T11:16:15;92844.97;;;23.27;49.64
3250;BME280;1637;42.020;23.992;2023-05-25T11:18:43;92845.56;;;23.37;49.72
3250;BME280;1637;42.020;23.992;2023-05-25T11:21:13;92843.69;;;23.22;50.18
3250;BME280;1637;42.020;23.992;2023-05-25T11:23:52;92816.50;;;22.93;50.32
3250;BME280;1637;42.020;23.992;2023-05-25T11:26:21;92844.22;;;23.26;50.40
3250;BME280;1637;42.020;23.992;2023-05-25T11:28:50;92845.09;;;23.38;50.37
3250;BME280;1637;42.020;23.992;2023-05-25T11:31:21;92840.91;;;23.43;50.70
3250;BME280;1637;42.020;23.992;2023-05-25T11:33:54;92842.88;;;23.88;48.18
3250;BME280;1637;42.020;23.992;2023-05-25T11:36:23;92841.50;;;24.36;47.67
3250;BME280;1637;42.020;23.992;2023-05-25T11:38:52;92828.38;;;24.88;47.43
3250;BME280;1637;42.020;23.992;2023-05-25T11:41:20;92815.31;;;24.66;45.62
3250;BME280;1637;42.020;23.992;2023-05-25T11:43:48;92842.94;;;25.16;43.15
3250;BME280;1637;42.020;23.992;2023-05-25T11:46:15;92840.59;;;24.92;45.55
3250;BME280;1637;42.020;23.992;2023-05-25T11:48:48;92837.91;;;24.98;43.93
3250;BME280;1637;42.020;23.992;2023-05-25T11:51:16;92832.53;;;24.78;42.03
3250;BME280;1637;42.020;23.992;2023-05-25T11:53:44;92847.25;;;24.06;41.89
3250;BME280;1637;42.020;23.992;2023-05-25T11:56:12;92833.69;;;24.23;42.11
3250;BME280;1637;42.020;23.992;2023-05-25T11:58:41;92858.53;;;23.88;41.87
3250;BME280;1637;42.020;23.992;2023-05-25T12:01:14;92823.00;;;23.93;45.61
3250;BME280;1637;42.020;23.992;2023-05-25T12:03:43;92823.94;;;24.53;46.61
3250;BME280;1637;42.020;23.992;2023-05-25T12:06:23;92814.78;;;24.62;46.83
3250;BME280;1637;42.020;23.992;2023-05-25T12:08:50;92830.00;;;24.26;46.28
3250;BME280;1637;42.020;23.992;2023-05-25T12:11:17;92816.06;;;24.24;45.73
3250;BME280;1637;42.020;23.992;2023-05-25T12:13:46;92813.59;;;24.26;47.03
3250;BME280;1637;42.020;23.992;2023-05-25T12:16:13;92818.16;;;23.77;46.17
3250;BME280;1637;42.020;23.992;2023-05-25T12:18:40;92811.44;;;23.78;46.47
3250;BME280;1637;42.020;23.992;2023-05-25T12:21:06;92807.16;;;23.72;47.48
3250;BME280;1637;42.020;23.992;2023-05-25T12:23:35;92801.28;;;23.53;48.12
3250;BME280;1637;42.020;23.992;2023-05-25T12:26:08;92804.81;;;23.59;46.92
3250;BME280;1637;42.020;23.992;2023-05-25T12:28:35;92797.53;;;23.30;47.41
3250;BME280;1637;42.020;23.992;2023-05-25T12:31:22;92794.88;;;23.36;47.71
3250;BME280;1637;42.020;23.992;2023-05-25T12:34:05;92790.84;;;23.05;47.91
3250;BME280;1637;42.020;23.992;2023-05-25T12:36:43;92787.72;;;23.18;47.55
3250;BME280;1637;42.020;23.992;2023-05-25T12:39:12;92792.69;;;23.40;48.27
3250;BME280;1637;42.020;23.992;2023-05-25T12:41:44;92793.91;;;23.39;47.75
3250;BME280;1637;42.020;23.992;2023-05-25T12:44:25;92796.44;;;23.42;48.11
3250;BME280;1637;42.020;23.992;2023-05-25T12:47:09;92797.91;;;23.17;48.81
3250;BME280;1637;42.020;23.992;2023-05-25T12:49:36;92798.00;;;23.03;49.21
3250;BME280;1637;42.020;23.992;2023-05-25T12:52:03;92798.47;;;23.21;50.01
3250;BME280;1637;42.020;23.992;2023-05-25T12:54:33;92793.41;;;23.14;50.51
3250;BME280;1637;42.020;23.992;2023-05-25T12:57:00;92794.72;;;23.45;49.54
3250;BME280;1637;42.020;23.992;2023-05-25T12:59:28;92799.69;;;23.72;49.90
3250;BME280;1637;42.020;23.992;2023-05-25T13:01:56;92788.22;;;23.42;49.74
3250;BME280;1637;42.020;23.992;2023-05-25T13:04:23;92788.16;;;23.88;50.09
3250;BME280;1637;42.020;23.992;2023-05-25T13:06:50;92784.81;;;23.47;52.92
3250;BME280;1637;42.020;23.992;2023-05-25T13:09:18;92789.47;;;22.95;54.07
3250;BME280;1637;42.020;23.992;2023-05-25T13:11:45;92786.38;;;23.08;54.53
3250;BME280;1637;42.020;23.992;2023-05-25T13:14:12;92776.53;;;23.16;54.00